sensor_id;sensor_type;location;lat;lon;timestamp;P1;durP1;ratioP1;P2;durP2;ratioP2
65463;SDS011;52063;45.110;9.870;2022-11-14T00:01:57;7.78;;;6.32;;
65463;SDS011;52063;45.110;9.870;2022-11-14T00:04:45;7.63;;;6.13;;
65463;SDS011;52063;45.110;9.870;2022-11-14T00:07:29;7.63;;;6.50;;
65463;SDS011;52063;45.110;9.870;2022-11-14T00:10:14;7.05;;;6.18;;
65463;SDS011;52063;45.110;9.870;2022-11-14T00:12:59;7.32;;;6.50;;
65463;SDS011;52063;45.110;9.870;2022-11-14T00:15:44;7.85;;;6.32;;
65463;SDS011;52063;45.110;9.870;2022-11-14T00:18:32;7.72;;;6.10;;
65463;SDS011;52063;45.110;9.870;2022-11-14T00:21:17;7.77;;;6.03;;
65463;SDS011;52063;45.110;9.870;2022-11-14T00:24:01;9.35;;;6.45;;
65463;SDS011;52063;45.110;9.870;2022-11-14T00:26:45;8.35;;;6.18;;
65463;SDS011;52063;45.110;9.870;2022-11-14T00:29:29;7.85;;;6.20;;
65463;SDS011;52063;45.110;9.870;2022-11-14T00:32:13;8.18;;;5.60;;
65463;SDS011;52063;45.110;9.870;2022-11-14T00:34:57;6.70;;;5.87;;
65463;SDS011;52063;45.110;9.870;2022-11-14T00:37:42;6.60;;;5.90;;
65463;SDS011;52063;45.110;9.870;2022-11-14T00:40:26;9.35;;;5.85;;
65463;SDS011;52063;45.110;9.870;2022-11-14T00:43:10;8.18;;;6.07;;
65463;SDS011;52063;45.110;9.870;2022-11-14T00:45:54;7.47;;;6.40;;
65463;SDS011;52063;45.110;9.870;2022-11-14T00:48:39;8.13;;;6.10;;
65463;SDS011;52063;45.110;9.870;2022-11-14T00:51:23;7.53;;;6.50;;
65463;SDS011;52063;45.110;9.870;2022-11-14T00:54:07;8.20;;;5.93;;
65463;SDS011;52063;45.110;9.870;2022-11-14T00:56:51;6.65;;;5.95;;
65463;SDS011;52063;45.110;9.870;2022-11-14T00:59:36;6.95;;;6.22;;
65463;SDS011;52063;45.110;9.870;2022-11-14T01:02:20;6.67;;;5.77;;
65463;SDS011;52063;45.110;9.870;2022-11-14T01:05:05;7.82;;;5.93;;
65463;SDS011;52063;45.110;9.870;2022-11-14T01:07:49;6.63;;;5.50;;
65463;SDS011;52063;45.110;9.870;2022-11-14T01:10:33;6.78;;;6.00;;
65463;SDS011;52063;45.110;9.870;2022-11-14T01:13:18;6.78;;;6.07;;
65463;SDS011;52063;45.110;9.870;2022-11-14T01:16:02;7.00;;;6.20;;
65463;SDS011;52063;45.110;9.870;2022-11-14T01:18:46;6.80;;;5.90;;
65463;SDS011;52063;45.110;9.870;2022-11-14T01:21:30;8.60;;;6.05;;
65463;SDS011;52063;45.110;9.870;2022-11-14T01:24:15;6.93;;;6.13;;
65463;SDS011;52063;45.110;9.870;2022-11-14T01:26:59;6.40;;;5.80;;
65463;SDS011;52063;45.110;9.870;2022-11-14T01:29:43;6.30;;;5.60;;
65463;SDS011;52063;45.110;9.870;2022-11-14T01:32:27;6.45;;;5.70;;
65463;SDS011;52063;45.110;9.870;2022-11-14T01:35:12;6.40;;;5.65;;
65463;SDS011;52063;45.110;9.870;2022-11-14T01:37:56;6.80;;;5.55;;
65463;SDS011;52063;45.110;9.870;2022-11-14T01:40:43;7.05;;;6.05;;
65463;SDS011;52063;45.110;9.870;2022-11-14T01:43:29;6.00;;;5.43;;
65463;SDS011;52063;45.110;9.870;2022-11-14T01:46:16;7.43;;;5.80;;
65463;SDS011;52063;45.110;9.870;2022-11-14T01:52:05;6.22;;;5.38;;
65463;SDS011;52063;45.110;9.870;2022-11-14T01:54:52;8.20;;;5.95;;
65463;SDS011;52063;45.110;9.870;2022-11-14T01:57:39;6.50;;;5.90;;
65463;SDS011;52063;45.110;9.870;2022-11-14T02:00:27;5.90;;;5.18;;
65463;SDS011;52063;45.110;9.870;2022-11-14T02:03:12;5.50;;;5.00;;
65463;SDS011;52063;45.110;9.870;2022-11-14T02:05:57;6.40;;;5.80;;
65463;SDS011;52063;45.110;9.870;2022-11-14T02:08:42;7.78;;;5.75;;
65463;SDS011;52063;45.110;9.870;2022-11-14T02:11:28;6.30;;;5.63;;
65463;SDS011;52063;45.110;9.870;2022-11-14T02:14:13;6.15;;;5.55;;
65463;SDS011;52063;45.110;9.870;2022-11-14T02:16:57;6.28;;;5.68;;
65463;SDS011;52063;45.110;9.870;2022-11-14T02:19:46;6.50;;;5.90;;
65463;SDS011;52063;45.110;9.870;2022-11-14T02:22:31;6.22;;;5.63;;
65463;SDS011;52063;45.110;9.870;2022-11-14T02:25:16;6.30;;;5.10;;
65463;SDS011;52063;45.110;9.870;2022-11-14T02:28:02;6.03;;;5.43;;
65463;SDS011;52063;45.110;9.870;2022-11-14T02:30:47;5.82;;;5.22;;
65463;SDS011;52063;45.110;9.870;2022-11-14T02:33:31;6.45;;;5.80;;
65463;SDS011;52063;45.110;9.870;2022-11-14T02:36:15;7.05;;;5.80;;
65463;SDS011;52063;45.110;9.870;2022-11-14T02:38:59;6.00;;;4.90;;
65463;SDS011;52063;45.110;9.870;2022-11-14T02:41:43;6.07;;;5.47;;
65463;SDS011;52063;45.110;9.870;2022-11-14T02:44:27;6.70;;;5.95;;
65463;SDS011;52063;45.110;9.870;2022-11-14T02:47:11;6.80;;;5.60;;
65463;SDS011;52063;45.110;9.870;2022-11-14T02:49:56;6.85;;;6.07;;
65463;SDS011;52063;45.110;9.870;2022-11-14T02:52:40;6.53;;;5.47;;
65463;SDS011;52063;45.110;9.870;2022-11-14T02:55:24;6.07;;;5.47;;
65463;SDS011;52063;45.110;9.870;2022-11-14T02:58:09;5.95;;;5.35;;
65463;SDS011;52063;45.110;9.870;2022-11-14T03:00:53;6.20;;;5.47;;
65463;SDS011;52063;45.110;9.870;2022-11-14T03:03:37;5.85;;;5.25;;
65463;SDS011;52063;45.110;9.870;2022-11-14T03:06:21;5.93;;;5.30;;
65463;SDS011;52063;45.110;9.870;2022-11-14T03:09:05;6.78;;;5.13;;
65463;SDS011;52063;45.110;9.870;2022-11-14T03:11:49;6.10;;;5.50;;
65463;SDS011;52063;45.110;9.870;2022-11-14T03:14:34;5.75;;;5.25;;
65463;SDS011;52063;45.110;9.870;2022-11-14T03:17:18;5.82;;;5.32;;
65463;SDS011;52063;45.110;9.870;2022-11-14T03:20:02;6.13;;;5.53;;
65463;SDS011;52063;45.110;9.870;2022-11-14T03:22:46;6.53;;;5.18;;
65463;SDS011;52063;45.110;9.870;2022-11-14T03:25:31;5.90;;;5.35;;
65463;SDS011;52063;45.110;9.870;2022-11-14T03:28:15;5.82;;;5.22;;
65463;SDS011;52063;45.110;9.870;2022-11-14T03:30:59;6.15;;;5.55;;
65463;SDS011;52063;45.110;9.870;2022-11-14T03:33:44;7.13;;;5.40;;
65463;SDS011;52063;45.110;9.870;2022-11-14T03:36:28;6.18;;;5.20;;
65463;SDS011;52063;45.110;9.870;2022-11-14T03:39:12;6.20;;;5.30;;
65463;SDS011;52063;45.110;9.870;2022-11-14T03:41:56;5.93;;;5.32;;
65463;SDS011;52063;45.110;9.870;2022-11-14T03:44:41;6.22;;;5.65;;
65463;SDS011;52063;45.110;9.870;2022-11-14T03:47:25;6.93;;;5.23;;
65463;SDS011;52063;45.110;9.870;2022-11-14T03:50:09;6.53;;;5.68;;
65463;SDS011;52063;45.110;9.870;2022-11-14T03:52:53;6.82;;;5.40;;
65463;SDS011;52063;45.110;9.870;2022-11-14T03:55:38;5.80;;;5.20;;
65463;SDS011;52063;45.110;9.870;2022-11-14T03:58:23;5.63;;;5.13;;
65463;SDS011;52063;45.110;9.870;2022-11-14T04:01:07;6.93;;;5.67;;
65463;SDS011;52063;45.110;9.870;2022-11-14T04:03:51;5.50;;;5.00;;
65463;SDS011;52063;45.110;9.870;2022-11-14T04:06:35;5.88;;;5.30;;
65463;SDS011;52063;45.110;9.870;2022-11-14T04:09:19;5.55;;;5.07;;
65463;SDS011;52063;45.110;9.870;2022-11-14T04:12:04;5.78;;;5.20;;
65463;SDS011;52063;45.110;9.870;2022-11-14T04:14:48;6.07;;;5.37;;
65463;SDS011;52063;45.110;9.870;2022-11-14T04:17:32;6.22;;;5.63;;
65463;SDS011;52063;45.110;9.870;2022-11-14T04:20:17;6.10;;;5.50;;
65463;SDS011;52063;45.110;9.870;2022-11-14T04:23:01;6.40;;;5.18;;
65463;SDS011;52063;45.110;9.870;2022-11-14T04:25:45;5.95;;;5.35;;
65463;SDS011;52063;45.110;9.870;2022-11-14T04:28:29;5.90;;;5.20;;
65463;SDS011;52063;45.110;9.870;2022-11-14T04:31:13;5.88;;;5.20;;
65463;SDS011;52063;45.110;9.870;2022-11-14T04:33:57;6.22;;;5.63;;
65463;SDS011;52063;45.110;9.870;2022-11-14T04:36:42;5.78;;;5.28;;
65463;SDS011;52063;45.110;9.870;2022-11-14T04:39:26;6.07;;;5.47;;
65463;SDS011;52063;45.110;9.870;2022-11-14T04:42:10;5.67;;;5.17;;
65463;SDS011;52063;45.110;9.870;2022-11-14T04:44:54;5.80;;;5.20;;
65463;SDS011;52063;45.110;9.870;2022-11-14T04:47:40;5.72;;;5.18;;
65463;SDS011;52063;45.110;9.870;2022-11-14T04:50:25;6.03;;;4.80;;
65463;SDS011;52063;45.110;9.870;2022-11-14T04:53:09;5.80;;;5.30;;
65463;SDS011;52063;45.110;9.870;2022-11-14T04:55:53;6.93;;;5.30;;
65463;SDS011;52063;45.110;9.870;2022-11-14T04:58:37;6.32;;;5.22;;
65463;SDS011;52063;45.110;9.870;2022-11-14T05:01:22;6.07;;;4.82;;
65463;SDS011;52063;45.110;9.870;2022-11-14T05:04:06;5.68;;;4.93;;
65463;SDS011;52063;45.110;9.870;2022-11-14T05:06:50;5.25;;;4.80;;
65463;SDS011;52063;45.110;9.870;2022-11-14T05:09:34;6.67;;;5.33;;
65463;SDS011;52063;45.110;9.870;2022-11-14T05:12:19;6.68;;;5.13;;
65463;SDS011;52063;45.110;9.870;2022-11-14T05:15:03;5.65;;;5.15;;
65463;SDS011;52063;45.110;9.870;2022-11-14T05:17:48;5.75;;;5.15;;
65463;SDS011;52063;45.110;9.870;2022-11-14T05:20:32;5.75;;;5.20;;
65463;SDS011;52063;45.110;9.870;2022-11-14T05:23:20;4.90;;;4.50;;
65463;SDS011;52063;45.110;9.870;2022-11-14T05:26:06;5.18;;;4.68;;
65463;SDS011;52063;45.110;9.870;2022-11-14T05:28:52;5.72;;;5.18;;
65463;SDS011;52063;45.110;9.870;2022-11-14T05:31:36;5.40;;;4.90;;
65463;SDS011;52063;45.110;9.870;2022-11-14T05:34:20;6.28;;;5.70;;
65463;SDS011;52063;45.110;9.870;2022-11-14T05:37:05;5.00;;;4.60;;
65463;SDS011;52063;45.110;9.870;2022-11-14T05:39:49;5.60;;;5.03;;
65463;SDS011;52063;45.110;9.870;2022-11-14T05:42:33;5.20;;;4.70;;
65463;SDS011;52063;45.110;9.870;2022-11-14T05:45:17;5.43;;;4.93;;
65463;SDS011;52063;45.110;9.870;2022-11-14T05:48:02;5.82;;;5.25;;
65463;SDS011;52063;45.110;9.870;2022-11-14T05:50:46;4.90;;;4.50;;
65463;SDS011;52063;45.110;9.870;2022-11-14T05:53:31;5.70;;;5.05;;
65463;SDS011;52063;45.110;9.870;2022-11-14T05:56:16;5.80;;;5.30;;
65463;SDS011;52063;45.110;9.870;2022-11-14T05:59:00;5.20;;;4.70;;
65463;SDS011;52063;45.110;9.870;2022-11-14T06:01:44;5.10;;;4.70;;
65463;SDS011;52063;45.110;9.870;2022-11-14T06:04:28;5.07;;;4.47;;
65463;SDS011;52063;45.110;9.870;2022-11-14T06:07:12;5.15;;;4.63;;
65463;SDS011;52063;45.110;9.870;2022-11-14T06:09:57;4.30;;;3.90;;
65463;SDS011;52063;45.110;9.870;2022-11-14T06:12:41;5.10;;;4.70;;
65463;SDS011;52063;45.110;9.870;2022-11-14T06:15:25;5.00;;;4.60;;
65463;SDS011;52063;45.110;9.870;2022-11-14T06:18:09;6.37;;;4.27;;
65463;SDS011;52063;45.110;9.870;2022-11-14T06:20:57;5.28;;;4.80;;
65463;SDS011;52063;45.110;9.870;2022-11-14T06:23:53;5.45;;;5.00;;
65463;SDS011;52063;45.110;9.870;2022-11-14T06:26:37;4.93;;;4.43;;
65463;SDS011;52063;45.110;9.870;2022-11-14T06:29:21;4.97;;;4.57;;
65463;SDS011;52063;45.110;9.870;2022-11-14T06:32:06;4.77;;;4.27;;
65463;SDS011;52063;45.110;9.870;2022-11-14T06:34:50;5.03;;;4.53;;
65463;SDS011;52063;45.110;9.870;2022-11-14T06:37:35;5.05;;;4.60;;
65463;SDS011;52063;45.110;9.870;2022-11-14T06:40:20;5.10;;;4.60;;
65463;SDS011;52063;45.110;9.870;2022-11-14T06:43:04;4.75;;;4.35;;
65463;SDS011;52063;45.110;9.870;2022-11-14T06:45:51;4.70;;;4.13;;
65463;SDS011;52063;45.110;9.870;2022-11-14T06:48:36;5.13;;;4.63;;
65463;SDS011;52063;45.110;9.870;2022-11-14T06:51:20;5.03;;;4.63;;
65463;SDS011;52063;45.110;9.870;2022-11-14T06:54:04;4.60;;;4.20;;
65463;SDS011;52063;45.110;9.870;2022-11-14T06:56:48;5.05;;;4.55;;
65463;SDS011;52063;45.110;9.870;2022-11-14T06:59:33;5.30;;;4.80;;
65463;SDS011;52063;45.110;9.870;2022-11-14T07:02:17;4.75;;;4.35;;
65463;SDS011;52063;45.110;9.870;2022-11-14T07:05:01;4.53;;;4.13;;
65463;SDS011;52063;45.110;9.870;2022-11-14T07:07:45;4.05;;;3.75;;
65463;SDS011;52063;45.110;9.870;2022-11-14T07:10:29;4.85;;;4.45;;
65463;SDS011;52063;45.110;9.870;2022-11-14T07:13:14;4.77;;;4.37;;
65463;SDS011;52063;45.110;9.870;2022-11-14T07:15:58;5.35;;;4.55;;
65463;SDS011;52063;45.110;9.870;2022-11-14T07:18:43;5.07;;;4.68;;
65463;SDS011;52063;45.110;9.870;2022-11-14T07:21:27;4.97;;;4.57;;
65463;SDS011;52063;45.110;9.870;2022-11-14T07:24:13;4.90;;;4.50;;
65463;SDS011;52063;45.110;9.870;2022-11-14T07:26:57;4.53;;;3.97;;
65463;SDS011;52063;45.110;9.870;2022-11-14T07:29:41;9.00;;;5.00;;
65463;SDS011;52063;45.110;9.870;2022-11-14T07:32:25;8.40;;;7.60;;
65463;SDS011;52063;45.110;9.870;2022-11-14T07:35:09;12.77;;;11.40;;
65463;SDS011;52063;45.110;9.870;2022-11-14T07:37:59;16.48;;;13.18;;
65463;SDS011;52063;45.110;9.870;2022-11-14T07:43:44;15.13;;;12.32;;
65463;SDS011;52063;45.110;9.870;2022-11-14T07:46:29;15.20;;;13.60;;
65463;SDS011;52063;45.110;9.870;2022-11-14T07:49:13;14.90;;;13.27;;
65463;SDS011;52063;45.110;9.870;2022-11-14T07:51:57;17.55;;;14.50;;
65463;SDS011;52063;45.110;9.870;2022-11-14T07:54:41;15.37;;;13.70;;
65463;SDS011;52063;45.110;9.870;2022-11-14T07:57:26;16.58;;;14.85;;
65463;SDS011;52063;45.110;9.870;2022-11-14T08:00:10;17.17;;;15.38;;
65463;SDS011;52063;45.110;9.870;2022-11-14T08:02:55;17.13;;;14.30;;
65463;SDS011;52063;45.110;9.870;2022-11-14T08:05:39;15.68;;;12.95;;
65463;SDS011;52063;45.110;9.870;2022-11-14T08:08:23;17.67;;;14.70;;
65463;SDS011;52063;45.110;9.870;2022-11-14T08:11:07;15.27;;;13.65;;
65463;SDS011;52063;45.110;9.870;2022-11-14T08:13:51;14.95;;;12.38;;
65463;SDS011;52063;45.110;9.870;2022-11-14T08:16:35;13.57;;;12.23;;
65463;SDS011;52063;45.110;9.870;2022-11-14T08:19:20;14.43;;;12.60;;
65463;SDS011;52063;45.110;9.870;2022-11-14T08:22:05;15.70;;;12.67;;
65463;SDS011;52063;45.110;9.870;2022-11-14T08:24:49;13.90;;;11.88;;
65463;SDS011;52063;45.110;9.870;2022-11-14T08:27:33;14.73;;;12.85;;
65463;SDS011;52063;45.110;9.870;2022-11-14T08:30:17;14.80;;;11.93;;
65463;SDS011;52063;45.110;9.870;2022-11-14T08:33:02;14.73;;;12.32;;
65463;SDS011;52063;45.110;9.870;2022-11-14T08:35:47;15.80;;;12.27;;
65463;SDS011;52063;45.110;9.870;2022-11-14T08:38:31;17.85;;;13.57;;
65463;SDS011;52063;45.110;9.870;2022-11-14T08:41:16;15.35;;;12.10;;
65463;SDS011;52063;45.110;9.870;2022-11-14T08:44:01;16.40;;;11.65;;
65463;SDS011;52063;45.110;9.870;2022-11-14T08:46:45;14.30;;;12.50;;
65463;SDS011;52063;45.110;9.870;2022-11-14T08:49:29;17.30;;;12.50;;
65463;SDS011;52063;45.110;9.870;2022-11-14T08:52:14;12.38;;;11.07;;
65463;SDS011;52063;45.110;9.870;2022-11-14T08:54:58;13.10;;;11.73;;
65463;SDS011;52063;45.110;9.870;2022-11-14T08:57:42;12.77;;;11.43;;
65463;SDS011;52063;45.110;9.870;2022-11-14T09:00:26;16.48;;;12.70;;
65463;SDS011;52063;45.110;9.870;2022-11-14T09:03:11;14.73;;;11.47;;
65463;SDS011;52063;45.110;9.870;2022-11-14T09:05:59;13.57;;;11.90;;
65463;SDS011;52063;45.110;9.870;2022-11-14T09:08:43;15.57;;;12.35;;
65463;SDS011;52063;45.110;9.870;2022-11-14T09:11:28;13.75;;;12.23;;
65463;SDS011;52063;45.110;9.870;2022-11-14T09:14:12;18.52;;;12.13;;
65463;SDS011;52063;45.110;9.870;2022-11-14T09:16:56;13.63;;;10.93;;
65463;SDS011;52063;45.110;9.870;2022-11-14T09:19:40;12.93;;;11.60;;
65463;SDS011;52063;45.110;9.870;2022-11-14T09:22:25;13.60;;;11.65;;
65463;SDS011;52063;45.110;9.870;2022-11-14T09:25:09;12.82;;;11.15;;
65463;SDS011;52063;45.110;9.870;2022-11-14T09:27:53;12.95;;;11.20;;
65463;SDS011;52063;45.110;9.870;2022-11-14T09:30:38;13.10;;;10.80;;
65463;SDS011;52063;45.110;9.870;2022-11-14T09:33:23;12.27;;;11.00;;
65463;SDS011;52063;45.110;9.870;2022-11-14T09:36:09;14.13;;;11.93;;
65463;SDS011;52063;45.110;9.870;2022-11-14T09:38:54;13.43;;;10.77;;
65463;SDS011;52063;45.110;9.870;2022-11-14T09:44:49;13.77;;;11.67;;
65463;SDS011;52063;45.110;9.870;2022-11-14T09:50:32;13.30;;;11.85;;
65463;SDS011;52063;45.110;9.870;2022-11-14T09:53:26;13.93;;;11.80;;
65463;SDS011;52063;45.110;9.870;2022-11-14T09:56:17;13.82;;;12.10;;
65463;SDS011;52063;45.110;9.870;2022-11-14T09:59:07;13.20;;;11.80;;
65463;SDS011;52063;45.110;9.870;2022-11-14T10:11:22;12.63;;;10.68;;
65463;SDS011;52063;45.110;9.870;2022-11-14T10:23:29;11.02;;;9.75;;
65463;SDS011;52063;45.110;9.870;2022-11-14T10:35:22;11.68;;;10.48;;
65463;SDS011;52063;45.110;9.870;2022-11-14T10:41:34;10.77;;;9.52;;
65463;SDS011;52063;45.110;9.870;2022-11-14T10:44:20;13.47;;;9.80;;
65463;SDS011;52063;45.110;9.870;2022-11-14T10:47:10;11.90;;;10.38;;
65463;SDS011;52063;45.110;9.870;2022-11-14T10:49:58;11.35;;;10.20;;
65463;SDS011;52063;45.110;9.870;2022-11-14T10:52:43;11.40;;;10.25;;
65463;SDS011;52063;45.110;9.870;2022-11-14T10:55:28;11.40;;;9.65;;
65463;SDS011;52063;45.110;9.870;2022-11-14T10:58:12;9.50;;;8.50;;
65463;SDS011;52063;45.110;9.870;2022-11-14T11:10:21;10.38;;;9.32;;
65463;SDS011;52063;45.110;9.870;2022-11-14T11:13:33;10.40;;;9.10;;
65463;SDS011;52063;45.110;9.870;2022-11-14T11:16:18;10.40;;;9.30;;
65463;SDS011;52063;45.110;9.870;2022-11-14T11:19:17;9.27;;;8.38;;
65463;SDS011;52063;45.110;9.870;2022-11-14T11:22:04;9.85;;;8.20;;
65463;SDS011;52063;45.110;9.870;2022-11-14T11:25:24;9.43;;;8.52;;
65463;SDS011;52063;45.110;9.870;2022-11-14T11:33:39;9.65;;;8.65;;
65463;SDS011;52063;45.110;9.870;2022-11-14T11:36:25;9.60;;;8.60;;
65463;SDS011;52063;45.110;9.870;2022-11-14T11:39:15;9.55;;;8.45;;
65463;SDS011;52063;45.110;9.870;2022-11-14T11:42:07;9.30;;;8.30;;
65463;SDS011;52063;45.110;9.870;2022-11-14T11:44:56;9.60;;;8.48;;
65463;SDS011;52063;45.110;9.870;2022-11-14T11:47:45;10.45;;;9.35;;
65463;SDS011;52063;45.110;9.870;2022-11-14T11:50:33;9.50;;;8.50;;
65463;SDS011;52063;45.110;9.870;2022-11-14T11:56:11;9.13;;;8.23;;
65463;SDS011;52063;45.110;9.870;2022-11-14T11:59:13;10.75;;;8.40;;
65463;SDS011;52063;45.110;9.870;2022-11-14T12:02:01;8.65;;;7.82;;
65463;SDS011;52063;45.110;9.870;2022-11-14T12:04:47;9.32;;;8.02;;
65463;SDS011;52063;45.110;9.870;2022-11-14T12:07:35;8.90;;;7.88;;
65463;SDS011;52063;45.110;9.870;2022-11-14T12:10:23;10.27;;;7.67;;
65463;SDS011;52063;45.110;9.870;2022-11-14T12:25:04;9.07;;;8.13;;
65463;SDS011;52063;45.110;9.870;2022-11-14T12:30:48;8.82;;;7.93;;
65463;SDS011;52063;45.110;9.870;2022-11-14T12:33:38;8.05;;;7.22;;
65463;SDS011;52063;45.110;9.870;2022-11-14T12:36:27;8.38;;;7.50;;
65463;SDS011;52063;45.110;9.870;2022-11-14T12:39:21;8.03;;;7.23;;
65463;SDS011;52063;45.110;9.870;2022-11-14T12:42:08;11.00;;;7.95;;
65463;SDS011;52063;45.110;9.870;2022-11-14T12:44:57;13.65;;;8.18;;
65463;SDS011;52063;45.110;9.870;2022-11-14T12:48:12;9.00;;;7.80;;
65463;SDS011;52063;45.110;9.870;2022-11-14T12:50:58;9.25;;;7.50;;
65463;SDS011;52063;45.110;9.870;2022-11-14T12:53:44;10.83;;;7.37;;
65463;SDS011;52063;45.110;9.870;2022-11-14T12:59:21;10.95;;;8.10;;
65463;SDS011;52063;45.110;9.870;2022-11-14T13:14:51;11.55;;;8.35;;
65463;SDS011;52063;45.110;9.870;2022-11-14T13:25:13;10.37;;;8.23;;
65463;SDS011;52063;45.110;9.870;2022-11-14T13:27:41;10.77;;;8.07;;
65463;SDS011;52063;45.110;9.870;2022-11-14T13:33:47;11.63;;;8.43;;
65463;SDS011;52063;45.110;9.870;2022-11-14T13:39:41;10.20;;;7.63;;
65463;SDS011;52063;45.110;9.870;2022-11-14T13:45:57;11.27;;;7.78;;
65463;SDS011;52063;45.110;9.870;2022-11-14T13:51:49;9.80;;;7.78;;
65463;SDS011;52063;45.110;9.870;2022-11-14T13:54:35;8.80;;;7.50;;
65463;SDS011;52063;45.110;9.870;2022-11-14T14:00:29;9.57;;;7.93;;
65463;SDS011;52063;45.110;9.870;2022-11-14T14:15:10;9.73;;;7.55;;
65463;SDS011;52063;45.110;9.870;2022-11-14T14:27:15;8.55;;;7.60;;
65463;SDS011;52063;45.110;9.870;2022-11-14T14:30:40;8.40;;;6.38;;
65463;SDS011;52063;45.110;9.870;2022-11-14T14:33:24;7.95;;;7.15;;
65463;SDS011;52063;45.110;9.870;2022-11-14T14:39:10;8.77;;;6.73;;
65463;SDS011;52063;45.110;9.870;2022-11-14T14:41:59;9.23;;;7.63;;
65463;SDS011;52063;45.110;9.870;2022-11-14T14:44:43;8.18;;;7.35;;
65463;SDS011;52063;45.110;9.870;2022-11-14T14:47:35;7.53;;;6.68;;
65463;SDS011;52063;45.110;9.870;2022-11-14T14:50:41;8.10;;;7.30;;
65463;SDS011;52063;45.110;9.870;2022-11-14T14:53:32;9.50;;;7.00;;
65463;SDS011;52063;45.110;9.870;2022-11-14T14:56:19;7.07;;;6.38;;
65463;SDS011;52063;45.110;9.870;2022-11-14T15:02:25;7.70;;;6.90;;
65463;SDS011;52063;45.110;9.870;2022-11-14T15:05:09;7.97;;;7.18;;
65463;SDS011;52063;45.110;9.870;2022-11-14T15:07:57;8.73;;;6.83;;
65463;SDS011;52063;45.110;9.870;2022-11-14T15:10:42;8.15;;;6.90;;
65463;SDS011;52063;45.110;9.870;2022-11-14T15:13:27;10.45;;;7.35;;
65463;SDS011;52063;45.110;9.870;2022-11-14T15:16:12;8.10;;;6.90;;
65463;SDS011;52063;45.110;9.870;2022-11-14T15:18:57;8.30;;;7.30;;
65463;SDS011;52063;45.110;9.870;2022-11-14T15:21:42;10.57;;;6.53;;
65463;SDS011;52063;45.110;9.870;2022-11-14T15:24:26;7.95;;;7.15;;
65463;SDS011;52063;45.110;9.870;2022-11-14T15:29:57;8.23;;;7.43;;
65463;SDS011;52063;45.110;9.870;2022-11-14T15:32:51;10.75;;;6.85;;
65463;SDS011;52063;45.110;9.870;2022-11-14T15:35:39;7.40;;;6.70;;
65463;SDS011;52063;45.110;9.870;2022-11-14T15:38:24;8.88;;;7.35;;
65463;SDS011;52063;45.110;9.870;2022-11-14T15:41:09;7.88;;;7.13;;
65463;SDS011;52063;45.110;9.870;2022-11-14T15:44:04;10.52;;;7.18;;
65463;SDS011;52063;45.110;9.870;2022-11-14T15:46:49;7.10;;;6.40;;
65463;SDS011;52063;45.110;9.870;2022-11-14T15:49:33;7.80;;;6.73;;
65463;SDS011;52063;45.110;9.870;2022-11-14T15:55:32;6.53;;;5.93;;
65463;SDS011;52063;45.110;9.870;2022-11-14T15:58:16;7.20;;;6.43;;
65463;SDS011;52063;45.110;9.870;2022-11-14T16:01:00;8.70;;;6.85;;
65463;SDS011;52063;45.110;9.870;2022-11-14T16:03:44;6.87;;;6.20;;
65463;SDS011;52063;45.110;9.870;2022-11-14T16:06:34;7.68;;;6.85;;
65463;SDS011;52063;45.110;9.870;2022-11-14T16:09:19;7.30;;;6.60;;
65463;SDS011;52063;45.110;9.870;2022-11-14T16:12:04;7.25;;;6.40;;
65463;SDS011;52063;45.110;9.870;2022-11-14T16:14:48;7.22;;;6.20;;
65463;SDS011;52063;45.110;9.870;2022-11-14T16:17:33;7.87;;;7.07;;
65463;SDS011;52063;45.110;9.870;2022-11-14T16:20:25;8.80;;;8.00;;
65463;SDS011;52063;45.110;9.870;2022-11-14T16:23:13;10.10;;;8.35;;
65463;SDS011;52063;45.110;9.870;2022-11-14T16:25:56;9.40;;;7.97;;
65463;SDS011;52063;45.110;9.870;2022-11-14T16:28:41;9.52;;;7.72;;
65463;SDS011;52063;45.110;9.870;2022-11-14T16:31:25;8.23;;;7.33;;
65463;SDS011;52063;45.110;9.870;2022-11-14T16:34:18;10.73;;;7.90;;
65463;SDS011;52063;45.110;9.870;2022-11-14T16:37:03;11.38;;;7.50;;
65463;SDS011;52063;45.110;9.870;2022-11-14T16:39:48;9.45;;;7.60;;
65463;SDS011;52063;45.110;9.870;2022-11-14T16:42:32;8.10;;;7.25;;
65463;SDS011;52063;45.110;9.870;2022-11-14T16:45:16;8.17;;;7.00;;
65463;SDS011;52063;45.110;9.870;2022-11-14T16:48:03;10.35;;;7.38;;
65463;SDS011;52063;45.110;9.870;2022-11-14T16:50:47;10.15;;;7.45;;
65463;SDS011;52063;45.110;9.870;2022-11-14T16:53:32;8.95;;;7.30;;
65463;SDS011;52063;45.110;9.870;2022-11-14T16:56:16;9.00;;;7.43;;
65463;SDS011;52063;45.110;9.870;2022-11-14T16:59:00;8.33;;;7.53;;
65463;SDS011;52063;45.110;9.870;2022-11-14T17:01:44;7.78;;;6.88;;
65463;SDS011;52063;45.110;9.870;2022-11-14T17:04:31;8.13;;;7.00;;
65463;SDS011;52063;45.110;9.870;2022-11-14T17:07:15;9.57;;;6.82;;
65463;SDS011;52063;45.110;9.870;2022-11-14T17:10:00;10.65;;;7.00;;
65463;SDS011;52063;45.110;9.870;2022-11-14T17:12:44;9.53;;;7.40;;
65463;SDS011;52063;45.110;9.870;2022-11-14T17:15:28;7.97;;;7.15;;
65463;SDS011;52063;45.110;9.870;2022-11-14T17:18:14;7.28;;;6.57;;
65463;SDS011;52063;45.110;9.870;2022-11-14T17:20:58;8.32;;;7.45;;
65463;SDS011;52063;45.110;9.870;2022-11-14T17:23:42;7.40;;;6.70;;
65463;SDS011;52063;45.110;9.870;2022-11-14T17:26:27;8.30;;;7.27;;
65463;SDS011;52063;45.110;9.870;2022-11-14T17:29:11;8.88;;;7.40;;
65463;SDS011;52063;45.110;9.870;2022-11-14T17:31:56;9.18;;;7.70;;
65463;SDS011;52063;45.110;9.870;2022-11-14T17:34:40;9.07;;;7.32;;
65463;SDS011;52063;45.110;9.870;2022-11-14T17:37:24;9.63;;;7.22;;
65463;SDS011;52063;45.110;9.870;2022-11-14T17:40:09;8.93;;;8.00;;
65463;SDS011;52063;45.110;9.870;2022-11-14T17:42:53;8.43;;;7.45;;
65463;SDS011;52063;45.110;9.870;2022-11-14T17:45:37;8.90;;;7.68;;
65463;SDS011;52063;45.110;9.870;2022-11-14T17:48:22;8.52;;;7.60;;
65463;SDS011;52063;45.110;9.870;2022-11-14T17:51:07;8.02;;;7.20;;
65463;SDS011;52063;45.110;9.870;2022-11-14T17:53:53;8.90;;;7.40;;
65463;SDS011;52063;45.110;9.870;2022-11-14T17:56:37;7.55;;;6.70;;
65463;SDS011;52063;45.110;9.870;2022-11-14T17:59:21;8.75;;;7.00;;
65463;SDS011;52063;45.110;9.870;2022-11-14T18:02:08;8.48;;;7.43;;
65463;SDS011;52063;45.110;9.870;2022-11-14T18:04:55;10.07;;;7.45;;
65463;SDS011;52063;45.110;9.870;2022-11-14T18:07:39;8.77;;;7.00;;
65463;SDS011;52063;45.110;9.870;2022-11-14T18:10:23;7.78;;;7.03;;
65463;SDS011;52063;45.110;9.870;2022-11-14T18:13:07;9.02;;;7.38;;
65463;SDS011;52063;45.110;9.870;2022-11-14T18:15:52;7.70;;;6.90;;
65463;SDS011;52063;45.110;9.870;2022-11-14T18:18:36;8.82;;;6.97;;
65463;SDS011;52063;45.110;9.870;2022-11-14T18:21:21;9.23;;;7.33;;
65463;SDS011;52063;45.110;9.870;2022-11-14T18:24:08;8.68;;;7.60;;
65463;SDS011;52063;45.110;9.870;2022-11-14T18:26:55;12.02;;;8.52;;
65463;SDS011;52063;45.110;9.870;2022-11-14T18:29:39;8.90;;;6.90;;
65463;SDS011;52063;45.110;9.870;2022-11-14T18:32:23;9.40;;;7.82;;
65463;SDS011;52063;45.110;9.870;2022-11-14T18:35:08;10.50;;;7.73;;
65463;SDS011;52063;45.110;9.870;2022-11-14T18:37:52;9.45;;;7.75;;
65463;SDS011;52063;45.110;9.870;2022-11-14T18:40:36;10.00;;;7.95;;
65463;SDS011;52063;45.110;9.870;2022-11-14T18:43:20;10.52;;;7.88;;
65463;SDS011;52063;45.110;9.870;2022-11-14T18:46:08;8.07;;;7.28;;
65463;SDS011;52063;45.110;9.870;2022-11-14T18:48:59;10.30;;;8.10;;
65463;SDS011;52063;45.110;9.870;2022-11-14T18:51:44;11.75;;;8.20;;
65463;SDS011;52063;45.110;9.870;2022-11-14T18:54:28;9.32;;;7.40;;
65463;SDS011;52063;45.110;9.870;2022-11-14T18:57:12;11.00;;;7.78;;
65463;SDS011;52063;45.110;9.870;2022-11-14T18:59:56;10.10;;;7.85;;
65463;SDS011;52063;45.110;9.870;2022-11-14T19:02:40;9.70;;;7.73;;